createdAt,value
2023-02-02T00:02:09.659Z,95005.75
2023-02-02T00:04:37.224Z,95015.44
2023-02-02T00:07:05.334Z,95001.16
2023-02-02T00:09:33.170Z,95016.41
2023-02-02T00:12:01.173Z,95012.44
2023-02-02T00:14:28.019Z,95012.09
2023-02-02T00:16:56.698Z,95019.41
2023-02-02T00:19:26.891Z,95028.59
2023-02-02T00:21:54.851Z,95026.69
2023-02-02T00:24:22.397Z,95033.69
2023-02-02T00:26:57.614Z,95033.06
2023-02-02T00:29:30.127Z,95020.84
2023-02-02T00:31:57.742Z,95025.75
2023-02-02T00:34:24.935Z,95024.50
2023-02-02T00:36:52.708Z,95028.94
2023-02-02T00:39:22.384Z,95031.66
2023-02-02T00:41:49.570Z,95033.53
2023-02-02T00:44:34.878Z,95035.44
2023-02-02T00:47:02.549Z,95027.66
2023-02-02T00:49:29.969Z,95019.25
2023-02-02T00:52:00.349Z,95023.69
2023-02-02T00:54:27.594Z,95023.56
2023-02-02T00:56:54.556Z,95024.50
2023-02-02T00:59:21.283Z,95037.19
2023-02-02T01:01:48.035Z,95034.78
2023-02-02T01:04:14.850Z,95032.09
2023-02-02T01:06:42.184Z,95034.00
2023-02-02T01:09:08.961Z,95025.44
2023-02-02T01:11:35.765Z,95023.06
2023-02-02T01:14:02.902Z,95027.03
2023-02-02T01:16:29.737Z,95021.94
2023-02-02T01:18:56.772Z,95031.97
2023-02-02T01:21:23.725Z,95029.41
2023-02-02T01:23:50.502Z,95033.69
2023-02-02T01:26:18.265Z,95045.59
2023-02-02T01:28:45.547Z,95037.66
2023-02-02T01:31:16.246Z,95042.91
2023-02-02T01:33:44.198Z,95047.03
2023-02-02T01:36:16.988Z,95050.34
2023-02-02T01:38:44.378Z,95046.22
2023-02-02T01:41:25.483Z,95038.91
2023-02-02T01:43:55.928Z,95041.13
2023-02-02T01:46:24.265Z,95037.16
2023-02-02T01:48:57.042Z,95050.97
2023-02-02T01:51:29.637Z,95048.44
2023-02-02T01:53:59.075Z,95038.91
2023-02-02T01:56:31.224Z,95045.88
2023-02-02T01:58:58.982Z,95035.25
2023-02-02T02:01:26.884Z,95040.00
2023-02-02T02:03:54.224Z,95037.47
2023-02-02T02:06:21.193Z,95032.06
2023-02-02T02:08:57.873Z,95028.09
2023-02-02T02:11:25.142Z,95017.47
2023-02-02T02:14:14.434Z,95022.38
2023-02-02T02:17:00.179Z,95018.09
2023-02-02T02:20:02.582Z,95011.28
2023-02-02T02:23:21.225Z,95010.03
2023-02-02T02:26:36.128Z,95008.88
2023-02-02T02:29:38.899Z,95013.63
2023-02-02T02:32:19.335Z,95013.16
2023-02-02T02:34:49.290Z,95012.84
2023-02-02T02:37:28.135Z,95012.53
2023-02-02T02:40:17.865Z,95010.00
2023-02-02T02:42:51.016Z,95008.41
2023-02-02T02:45:19.206Z,95010.81
2023-02-02T02:47:47.422Z,95007.94
2023-02-02T02:50:14.168Z,95008.44
2023-02-02T02:52:41.395Z,95006.50
2023-02-02T02:55:10.599Z,95004.16
2023-02-02T02:57:52.999Z,95017.16
2023-02-02T03:00:31.881Z,95009.06
2023-02-02T03:03:26.680Z,95014.47
2023-02-02T03:06:14.630Z,95015.56
2023-02-02T03:08:48.985Z,94989.06
2023-02-02T03:11:16.571Z,95006.38
2023-02-02T03:13:43.829Z,95007.31
2023-02-02T03:16:11.457Z,95017.31
2023-02-02T03:18:39.014Z,95005.69
2023-02-02T03:21:05.827Z,95010.16
2023-02-02T03:23:32.561Z,95004.13
2023-02-02T03:25:59.778Z,95004.16
2023-02-02T03:28:28.074Z,95001.91
2023-02-02T03:30:56.079Z,94994.28
2023-02-02T03:33:23.069Z,95004.91
2023-02-02T03:35:49.882Z,94997.31
2023-02-02T03:38:16.560Z,95000.47
2023-02-02T03:40:43.277Z,95003.50
2023-02-02T03:43:09.937Z,95008.09
2023-02-02T03:45:37.323Z,95000.81
2023-02-02T03:48:05.686Z,94998.41
2023-02-02T03:50:33.279Z,94998.41
2023-02-02T03:53:00.322Z,95004.63
2023-02-02T03:55:27.095Z,95006.22
2023-02-02T03:57:53.785Z,95018.72
2023-02-02T04:00:21.365Z,95020.31
2023-02-02T04:02:48.063Z,95008.72
2023-02-02T04:05:14.874Z,95007.13
2023-02-02T04:07:41.562Z,95014.09
2023-02-02T04:10:08.814Z,95016.03
2023-02-02T04:12:35.439Z,95017.59
2023-02-02T04:15:02.127Z,95016.50
2023-02-02T04:17:28.741Z,95025.56
2023-02-02T04:19:58.204Z,95017.59
2023-02-02T04:22:25.908Z,95034.75
2023-02-02T04:24:52.715Z,95023.31
2023-02-02T04:27:22.402Z,95017.75
2023-02-02T04:29:49.046Z,95027.31
2023-02-02T04:32:16.830Z,95025.22
2023-02-02T04:34:43.797Z,95024.13
2023-02-02T04:37:11.511Z,95027.13
2023-02-02T04:39:38.152Z,95016.16
2023-02-02T04:42:04.956Z,95027.81
2023-02-02T04:44:31.655Z,95023.00
2023-02-02T04:46:58.340Z,95034.63
2023-02-02T04:49:25.003Z,95028.41
2023-02-02T04:51:51.648Z,95023.97
2023-02-02T04:54:18.362Z,95027.41
2023-02-02T04:56:45.163Z,95024.25
2023-02-02T04:59:11.794Z,95032.03
2023-02-02T05:01:38.465Z,95025.34
2023-02-02T05:04:05.297Z,95030.59
2023-02-02T05:06:31.933Z,95027.59
2023-02-02T05:09:04.642Z,95024.09
2023-02-02T05:11:31.371Z,95035.84
2023-02-02T05:13:58.001Z,95040.75
2023-02-02T05:16:27.053Z,95044.25
2023-02-02T05:18:56.897Z,95039.47
2023-02-02T05:21:23.816Z,95034.56
2023-02-02T05:23:50.649Z,95043.47
2023-02-02T05:26:27.158Z,95042.31
2023-02-02T05:28:53.941Z,95043.28
2023-02-02T05:31:21.020Z,95039.94
2023-02-02T05:33:47.772Z,95030.44
2023-02-02T05:36:15.620Z,95048.06
2023-02-02T05:38:42.363Z,95045.16
2023-02-02T05:41:09.088Z,95062.66
2023-02-02T05:43:35.961Z,95056.63
2023-02-02T05:46:02.753Z,95063.28
2023-02-02T05:48:29.485Z,95072.34
2023-02-02T05:51:21.806Z,95071.06
2023-02-02T05:53:48.479Z,95070.88
2023-02-02T05:56:16.218Z,95054.19
2023-02-02T05:58:44.445Z,95055.50
2023-02-02T06:01:11.224Z,95051.50
2023-02-02T06:03:37.980Z,95055.16
2023-02-02T06:06:06.929Z,95066.44
2023-02-02T06:08:34.667Z,95064.66
2023-02-02T06:11:09.575Z,95063.25
2023-02-02T06:13:36.615Z,95081.06
2023-02-02T06:16:03.437Z,95081.34
2023-02-02T06:18:30.642Z,95078.03
2023-02-02T06:20:58.591Z,95077.88
2023-02-02T06:23:25.529Z,95079.78
2023-02-02T06:25:52.196Z,95067.06
2023-02-02T06:28:18.955Z,95072.47
2023-02-02T06:30:45.863Z,95077.41
2023-02-02T06:33:12.615Z,95079.97
2023-02-02T06:35:39.298Z,95079.66
2023-02-02T06:38:05.954Z,95081.88
2023-02-02T06:40:32.607Z,95095.69
2023-02-02T06:43:01.032Z,95094.56
2023-02-02T06:45:29.214Z,95093.47
2023-02-02T06:48:00.801Z,95109.34
2023-02-02T06:50:27.422Z,95106.50
2023-02-02T06:52:54.080Z,95110.63
2023-02-02T06:55:20.747Z,95118.56
2023-02-02T06:57:47.713Z,95121.75
2023-02-02T07:00:15.034Z,95117.44
2023-02-02T07:02:45.935Z,95104.63
2023-02-02T07:05:12.663Z,95103.97
2023-02-02T07:07:39.280Z,95112.84
2023-02-02T07:10:06.328Z,95108.75
2023-02-02T07:12:32.961Z,95110.47
2023-02-02T07:14:59.837Z,95108.59
2023-02-02T07:17:26.446Z,95118.59
2023-02-02T07:19:53.144Z,95102.88
2023-02-02T07:22:19.834Z,95115.09
2023-02-02T07:24:46.723Z,95110.31
2023-02-02T07:27:13.754Z,95109.41
2023-02-02T07:29:40.570Z,95110.34
2023-02-02T07:32:07.271Z,95115.56
2023-02-02T07:34:33.881Z,95108.28
2023-02-02T07:37:00.555Z,95111.13
2023-02-02T07:39:27.181Z,95110.16
2023-02-02T07:41:53.858Z,95112.72
2023-02-02T07:44:30.706Z,95121.59
2023-02-02T07:46:57.327Z,95119.22
2023-02-02T07:49:23.943Z,95123.50
2023-02-02T07:51:50.674Z,95121.91
2023-02-02T07:54:17.341Z,95125.41
2023-02-02T07:56:43.994Z,95119.69
2023-02-02T07:59:11.565Z,95121.91
2023-02-02T08:01:38.267Z,95126.50
2023-02-02T08:04:05.035Z,95135.72
2023-02-02T08:06:37.475Z,95130.94
2023-02-02T08:09:07.713Z,95131.91
2023-02-02T08:11:35.853Z,95139.22
2023-02-02T08:14:03.718Z,95132.69
2023-02-02T08:16:32.029Z,95125.41
2023-02-02T08:18:59.082Z,95128.91
2023-02-02T08:21:25.836Z,95137.47
2023-02-02T08:23:53.779Z,95127.13
2023-02-02T08:26:23.495Z,95124.13
2023-02-02T08:28:59.250Z,95133.50
2023-02-02T08:31:37.810Z,95118.88
2023-02-02T08:34:05.032Z,95112.06
2023-02-02T08:36:33.022Z,95104.72
2023-02-02T08:39:05.475Z,95101.69
2023-02-02T08:41:32.631Z,95103.44
2023-02-02T08:43:59.561Z,95109.06
2023-02-02T08:46:26.650Z,95117.91
2023-02-02T08:48:53.321Z,95100.88
2023-02-02T08:51:20.678Z,95104.22
2023-02-02T08:53:47.682Z,95104.38
2023-02-02T08:56:22.509Z,95112.97
2023-02-02T08:58:58.096Z,95118.19
2023-02-02T09:01:30.121Z,95116.44
2023-02-02T09:03:58.817Z,95119.63
2023-02-02T09:06:30.507Z,95123.09
2023-02-02T09:08:57.125Z,95131.16
2023-02-02T09:11:23.873Z,95133.03
2023-02-02T09:13:57.790Z,95143.81
2023-02-02T09:16:26.283Z,95147.63
2023-02-02T09:18:53.821Z,95155.00
2023-02-02T09:21:21.189Z,95152.28
2023-02-02T09:23:50.746Z,95169.28
2023-02-02T09:26:25.656Z,95177.56
2023-02-02T09:28:55.291Z,95175.47
2023-02-02T09:31:22.324Z,95177.06
2023-02-02T09:33:49.287Z,95193.59
2023-02-02T09:36:21.332Z,95199.66
2023-02-02T09:38:49.194Z,95199.16
2023-02-02T09:41:37.709Z,95216.66
2023-02-02T09:44:23.309Z,95220.63
2023-02-02T09:47:40.674Z,95218.06
2023-02-02T09:50:22.608Z,95222.38
2023-02-02T09:52:58.587Z,95229.22
2023-02-02T09:55:28.200Z,95234.66
2023-02-02T09:58:04.174Z,95227.47
2023-02-02T10:00:38.375Z,95223.47
2023-02-02T10:03:15.525Z,95227.78
2023-02-02T10:05:50.350Z,95224.44
2023-02-02T10:08:34.297Z,95214.25
2023-02-02T10:11:13.112Z,95214.84
2023-02-02T10:13:43.563Z,95201.91
2023-02-02T10:16:17.587Z,95205.22
2023-02-02T10:18:59.643Z,95216.16
2023-02-02T10:22:12.948Z,95203.00
2023-02-02T10:24:39.834Z,95208.22
2023-02-02T10:27:25.575Z,95215.50
2023-02-02T10:30:03.858Z,95207.84
2023-02-02T10:32:34.811Z,95209.19
2023-02-02T10:35:36.013Z,95215.91
2023-02-02T10:38:36.781Z,95209.59
2023-02-02T10:41:33.757Z,95209.91
2023-02-02T10:44:13.859Z,95228.25
2023-02-02T10:46:45.515Z,95237.28
2023-02-02T10:49:31.166Z,95238.34
2023-02-02T10:52:16.603Z,95239.44
2023-02-02T10:54:57.936Z,95238.59
2023-02-02T10:57:45.219Z,95241.22
2023-02-02T11:00:23.633Z,95239.81
2023-02-02T11:02:52.566Z,95246.84
2023-02-02T11:05:43.969Z,95247.19
2023-02-02T11:08:16.580Z,95246.41
2023-02-02T11:10:49.792Z,95228.88
2023-02-02T11:13:33.552Z,95228.78
2023-02-02T11:16:15.454Z,95218.88
2023-02-02T11:18:44.122Z,95196.09
2023-02-02T11:21:25.056Z,95210.75
2023-02-02T11:23:55.971Z,95209.66
2023-02-02T11:26:25.017Z,95217.50
2023-02-02T11:28:54.256Z,95221.06
2023-02-02T11:31:32.344Z,95222.16
2023-02-02T11:34:28.791Z,95215.66
2023-02-02T11:37:00.733Z,95217.59
2023-02-02T11:39:28.016Z,95223.28
2023-02-02T11:42:29.012Z,95215.47
2023-02-02T11:44:59.793Z,95216.41
2023-02-02T11:47:33.926Z,95227.66
2023-02-02T11:50:02.722Z,95225.69
2023-02-02T11:52:32.949Z,95231.25
2023-02-02T11:55:02.954Z,95232.53
2023-02-02T11:57:30.578Z,95230.13
2023-02-02T12:00:17.884Z,95235.13
2023-02-02T12:02:49.155Z,95226.31
2023-02-02T12:05:23.515Z,95225.38
2023-02-02T12:07:50.177Z,95231.53
2023-02-02T12:10:28.505Z,95236.63
2023-02-02T12:13:40.899Z,95237.53
2023-02-02T12:16:29.993Z,95231.53
2023-02-02T12:19:28.521Z,95230.66
2023-02-02T12:22:04.214Z,95239.38
2023-02-02T12:24:37.701Z,95237.97
2023-02-02T12:27:07.276Z,95234.63
2023-02-02T12:29:49.235Z,95230.94
2023-02-02T12:32:26.966Z,95233.50
2023-02-02T12:35:12.272Z,95231.50
2023-02-02T12:38:46.971Z,95223.41
2023-02-02T12:41:16.513Z,95224.50
2023-02-02T12:43:50.962Z,95225.44
2023-02-02T12:46:29.724Z,95218.63
2023-02-02T12:49:27.911Z,95210.72
2023-02-02T12:52:19.420Z,95209.31
2023-02-02T12:55:16.682Z,95206.81
2023-02-02T12:57:49.324Z,95200.63
2023-02-02T13:00:42.398Z,95214.16
2023-02-02T13:03:30.965Z,95216.31
2023-02-02T13:06:19.459Z,95223.13
2023-02-02T13:09:02.577Z,95221.44
2023-02-02T13:11:41.422Z,95222.22
2023-02-02T13:14:16.847Z,95220.03
2023-02-02T13:16:50.760Z,95237.28
2023-02-02T13:19:42.671Z,95237.91
2023-02-02T13:22:17.020Z,95235.84
2023-02-02T13:24:48.338Z,95242.84
2023-02-02T13:27:19.652Z,95238.06
2023-02-02T13:30:11.358Z,95237.97
2023-02-02T13:32:41.639Z,95254.06
2023-02-02T13:35:23.079Z,95254.19
2023-02-02T13:38:06.995Z,95262.13
2023-02-02T13:40:39.483Z,95250.34
2023-02-02T13:43:38.561Z,95256.38
2023-02-02T13:46:24.026Z,95255.59
2023-02-02T13:49:13.927Z,95255.59
2023-02-02T13:51:46.833Z,95262.31
2023-02-02T13:54:49.228Z,95260.47
2023-02-02T13:57:48.478Z,95264.63
2023-02-02T14:00:28.804Z,95261.09
2023-02-02T14:02:59.155Z,95265.53
2023-02-02T14:05:31.899Z,95257.84
2023-02-02T14:08:17.663Z,95266.00
2023-02-02T14:10:53.622Z,95258.72
2023-02-02T14:13:44.557Z,95257.00
2023-02-02T14:16:42.539Z,95268.59
2023-02-02T14:19:28.944Z,95263.22
2023-02-02T14:22:12.083Z,95269.75
2023-02-02T14:24:53.741Z,95280.88
2023-02-02T14:27:30.024Z,95279.19
2023-02-02T14:29:56.685Z,95277.41
2023-02-02T14:32:29.548Z,95278.34
2023-02-02T14:35:08.535Z,95292.03
2023-02-02T14:37:47.070Z,95292.22
2023-02-02T14:41:01.288Z,95305.75
2023-02-02T14:43:44.736Z,95300.81
2023-02-02T14:46:14.515Z,95314.84
2023-02-02T14:48:48.560Z,95305.94
2023-02-02T14:51:24.185Z,95302.47
2023-02-02T14:53:55.120Z,95301.19
2023-02-02T14:56:38.108Z,95311.06
2023-02-02T14:59:07.389Z,95301.81
2023-02-02T15:01:37.481Z,95314.38
2023-02-02T15:04:24.987Z,95316.00
2023-02-02T15:06:55.796Z,95322.38
2023-02-02T15:09:23.273Z,95312.03
2023-02-02T15:12:00.838Z,95311.09
2023-02-02T15:14:53.144Z,95316.84
2023-02-02T15:17:40.981Z,95319.69
2023-02-02T15:20:32.439Z,95323.00
2023-02-02T15:23:19.279Z,95316.66
2023-02-02T15:25:57.963Z,95318.72
2023-02-02T15:28:33.595Z,95327.78
2023-02-02T15:31:13.236Z,95322.53
2023-02-02T15:33:44.865Z,95330.50
2023-02-02T15:36:14.061Z,95328.72
2023-02-02T15:38:43.116Z,95323.16
2023-02-02T15:41:19.237Z,95322.84
2023-02-02T15:43:46.283Z,95329.69
2023-02-02T15:46:16.181Z,95335.88
2023-02-02T15:48:45.909Z,95344.63
2023-02-02T15:51:17.679Z,95344.50
2023-02-02T15:53:44.153Z,95337.16
2023-02-02T15:56:23.047Z,95346.25
2023-02-02T15:58:52.977Z,95343.06
2023-02-02T16:01:22.327Z,95361.06
2023-02-02T16:03:56.434Z,95358.34
2023-02-02T16:06:23.212Z,95356.41
2023-02-02T16:08:50.261Z,95359.94
2023-02-02T16:11:20.860Z,95365.97
2023-02-02T16:14:10.335Z,95366.47
2023-02-02T16:16:42.292Z,95368.06
2023-02-02T16:19:09.385Z,95374.25
2023-02-02T16:21:42.782Z,95376.97
2023-02-02T16:24:15.497Z,95374.56
2023-02-02T16:26:42.363Z,95364.22
2023-02-02T16:29:17.429Z,95377.91
2023-02-02T16:31:47.746Z,95376.34
2023-02-02T16:34:19.603Z,95379.81
2023-02-02T16:37:12.871Z,95384.44
2023-02-02T16:39:39.660Z,95379.81
2023-02-02T16:42:31.620Z,95383.81
2023-02-02T16:45:00.471Z,95379.66
2023-02-02T16:47:27.052Z,95380.94
2023-02-02T16:50:27.899Z,95387.75
2023-02-02T16:52:56.284Z,95390.63
2023-02-02T16:55:24.246Z,95399.69
2023-02-02T16:57:51.743Z,95404.47
2023-02-02T17:00:20.450Z,95398.09
2023-02-02T17:02:50.144Z,95397.16
2023-02-02T17:05:25.896Z,95406.22
2023-02-02T17:08:04.500Z,95417.69
2023-02-02T17:10:38.073Z,95421.97
2023-02-02T17:13:30.325Z,95421.66
2023-02-02T17:15:57.663Z,95424.34
2023-02-02T17:18:24.666Z,95425.78
2023-02-02T17:20:57.805Z,95434.84
2023-02-02T17:23:28.639Z,95428.50
2023-02-02T17:25:55.709Z,95449.47
2023-02-02T17:28:25.135Z,95449.19
2023-02-02T17:31:00.287Z,95444.06
2023-02-02T17:33:27.317Z,95456.16
2023-02-02T17:35:56.288Z,95458.56
2023-02-02T17:38:24.766Z,95458.56
2023-02-02T17:40:52.942Z,95459.50
2023-02-02T17:43:19.794Z,95468.44
2023-02-02T17:45:46.651Z,95475.75
2023-02-02T17:48:14.265Z,95458.22
2023-02-02T17:50:42.221Z,95481.63
2023-02-02T17:53:14.177Z,95478.25
2023-02-02T17:55:42.710Z,95477.94
2023-02-02T17:58:13.084Z,95479.09
2023-02-02T18:00:40.459Z,95478.25
2023-02-02T18:03:14.312Z,95473.47
2023-02-02T18:05:43.436Z,95474.13
2023-02-02T18:08:12.218Z,95465.41
2023-02-02T18:10:39.639Z,95478.25
2023-02-02T18:13:06.475Z,95485.28
2023-02-02T18:15:35.139Z,95492.28
2023-02-02T18:18:02.341Z,95483.50
2023-02-02T18:20:29.055Z,95482.56
2023-02-02T18:22:55.809Z,95485.44
2023-02-02T18:25:24.710Z,95476.50
2023-02-02T18:27:53.885Z,95482.91
2023-02-02T18:30:22.044Z,95481.75
2023-02-02T18:32:49.896Z,95479.03
2023-02-02T18:35:16.754Z,95472.84
2023-02-02T18:37:43.473Z,95475.53
2023-02-02T18:40:11.099Z,95465.53
2023-02-02T18:42:37.833Z,95476.50
2023-02-02T18:45:06.055Z,95492.09
2023-02-02T18:47:32.890Z,95480.31
2023-02-02T18:49:59.544Z,95477.13
2023-02-02T18:52:26.227Z,95478.56
2023-02-02T18:54:52.871Z,95488.75
2023-02-02T18:57:19.571Z,95493.06
2023-02-02T18:59:46.245Z,95492.22
2023-02-02T19:02:18.550Z,95493.38
2023-02-02T19:05:05.006Z,95492.72
2023-02-02T19:07:50.849Z,95488.13
2023-02-02T19:10:18.454Z,95484.78
2023-02-02T19:13:10.146Z,95492.09
2023-02-02T19:15:39.297Z,95489.91
2023-02-02T19:18:16.369Z,95489.41
2023-02-02T19:20:44.570Z,95492.09
2023-02-02T19:23:17.079Z,95499.72
2023-02-02T19:25:50.740Z,95494.81
2023-02-02T19:28:28.346Z,95507.34
2023-02-02T19:31:00.994Z,95517.06
2023-02-02T19:33:41.830Z,95510.88
2023-02-02T19:36:20.585Z,95514.38
2023-02-02T19:38:49.469Z,95520.59
2023-02-02T19:41:21.134Z,95521.69
2023-02-02T19:43:49.728Z,95526.75
2023-02-02T19:46:25.510Z,95530.13
2023-02-02T19:49:07.495Z,95532.50
2023-02-02T19:51:46.051Z,95526.78
2023-02-02T19:54:36.029Z,95521.69
2023-02-02T19:57:05.916Z,95514.41
2023-02-02T19:59:35.382Z,95522.03
2023-02-02T20:02:29.300Z,95522.97
2023-02-02T20:05:06.423Z,95521.38
2023-02-02T20:07:33.233Z,95515.78
2023-02-02T20:10:20.962Z,95522.13
2023-02-02T20:12:51.710Z,95520.09
2023-02-02T20:15:32.648Z,95514.22
2023-02-02T20:18:02.555Z,95508.34
2023-02-02T20:20:37.001Z,95512.16
2023-02-02T20:23:17.551Z,95507.22
2023-02-02T20:25:44.359Z,95509.44
2023-02-02T20:28:43.235Z,95516.28
2023-02-02T20:31:13.523Z,95504.97
2023-02-02T20:33:45.059Z,95509.59
2023-02-02T20:36:26.987Z,95510.09
2023-02-02T20:38:53.672Z,95511.38
2023-02-02T20:41:20.549Z,95503.25
2023-02-02T20:43:47.250Z,95502.75
2023-02-02T20:46:15.268Z,95510.25
2023-02-02T20:48:42.189Z,95505.78
2023-02-02T20:51:11.411Z,95504.38
2023-02-02T20:53:39.538Z,95509.75
2023-02-02T20:56:06.583Z,95502.91
2023-02-02T20:58:33.370Z,95498.78
2023-02-02T21:01:05.280Z,95511.66
2023-02-02T21:03:32.923Z,95510.72
2023-02-02T21:06:00.081Z,95512.63
2023-02-02T21:08:26.788Z,95510.25
2023-02-02T21:10:53.958Z,95512.97
2023-02-02T21:13:20.917Z,95515.19
2023-02-02T21:15:48.350Z,95513.91
2023-02-02T21:18:15.130Z,95510.72
2023-02-02T21:20:41.810Z,95515.97
2023-02-02T21:23:10.478Z,95507.06
2023-02-02T21:25:37.235Z,95507.69
2023-02-02T21:28:04.256Z,95503.38
2023-02-02T21:30:31.308Z,95508.50
2023-02-02T21:32:58.652Z,95508.50
2023-02-02T21:35:26.770Z,95507.84
2023-02-02T21:37:56.723Z,95513.91
2023-02-02T21:44:44.880Z,95520.59
2023-02-02T21:47:33.686Z,95510.09
2023-02-02T21:50:25.903Z,95515.47
2023-02-02T21:53:21.304Z,95510.56
2023-02-02T21:55:52.189Z,95509.44
2023-02-02T21:58:35.958Z,95512.00
2023-02-02T22:01:16.706Z,95512.59
2023-02-02T22:03:46.649Z,95516.13
2023-02-02T22:06:33.544Z,95514.03
2023-02-02T22:09:12.419Z,95522.00
2023-02-02T22:11:46.792Z,95515.94
2023-02-02T22:14:18.924Z,95526.28
2023-02-02T22:16:50.283Z,95516.91
2023-02-02T22:19:35.195Z,95527.41
2023-02-02T22:22:13.327Z,95530.25
2023-02-02T22:24:40.277Z,95523.41
2023-02-02T22:27:25.050Z,95531.34
2023-02-02T22:33:38.982Z,95535.53
2023-02-02T22:36:05.931Z,95529.91
2023-02-02T22:38:32.811Z,95524.50
2023-02-02T22:40:59.676Z,95533.09
2023-02-02T22:43:26.373Z,95527.88
2023-02-02T22:45:53.269Z,95542.66
2023-02-02T22:48:20.220Z,95535.66
2023-02-02T22:50:47.235Z,95532.50
2023-02-02T22:53:15.460Z,95542.34
2023-02-02T22:55:43.396Z,95539.00
2023-02-02T22:58:10.000Z,95536.31
2023-02-02T23:00:37.671Z,95533.88
2023-02-02T23:03:07.488Z,95533.09
2023-02-02T23:05:34.269Z,95539.44
2023-02-02T23:08:01.065Z,95537.53
2023-02-02T23:10:29.552Z,95530.56
2023-02-02T23:12:58.500Z,95536.25
2023-02-02T23:15:25.594Z,95536.91
2023-02-02T23:17:52.597Z,95536.31
2023-02-02T23:20:19.772Z,95535.31
2023-02-02T23:22:46.418Z,95536.91
2023-02-02T23:25:14.127Z,95532.13
2023-02-02T23:27:41.810Z,95529.13
2023-02-02T23:30:09.937Z,95528.47
2023-02-02T23:32:36.611Z,95525.66
2023-02-02T23:35:04.099Z,95525.78
2023-02-02T23:37:30.909Z,95531.50
2023-02-02T23:39:57.532Z,95525.50
2023-02-02T23:42:25.645Z,95526.28
2023-02-02T23:44:52.661Z,95530.13
2023-02-02T23:47:19.564Z,95527.53
2023-02-02T23:49:46.328Z,95525.50
2023-02-02T23:52:13.421Z,95536.94
2023-02-02T23:54:40.473Z,95538.69
2023-02-02T23:57:07.166Z,95536.59
2023-02-02T23:59:33.860Z,95542.50
